createdAt,value
2022-08-20T00:03:59.260Z,94.45
2022-08-20T00:14:03.129Z,95.51
2022-08-20T00:24:04.542Z,97.01
2022-08-20T00:34:05.848Z,98.30
2022-08-20T00:44:07.283Z,100.00
2022-08-20T00:54:08.614Z,100.00
2022-08-20T01:04:11.128Z,100.00
2022-08-20T01:14:21.852Z,100.00
2022-08-20T01:24:23.181Z,100.00
2022-08-20T01:34:24.536Z,100.00
2022-08-20T01:44:25.930Z,100.00
2022-08-20T01:54:27.281Z,100.00
2022-08-20T02:04:28.649Z,100.00
2022-08-20T02:14:29.967Z,100.00
2022-08-20T02:24:31.413Z,100.00
2022-08-20T02:34:34.809Z,100.00
2022-08-20T02:44:36.191Z,100.00
2022-08-20T02:54:37.550Z,100.00
2022-08-20T03:04:38.864Z,100.00
2022-08-20T03:14:40.182Z,100.00
2022-08-20T03:24:41.562Z,100.00
2022-08-20T03:34:42.901Z,100.00
2022-08-20T03:44:44.242Z,100.00
2022-08-20T03:54:46.093Z,100.00
2022-08-20T04:04:47.465Z,100.00
2022-08-20T04:14:48.709Z,100.00
2022-08-20T04:24:50.974Z,100.00
2022-08-20T04:34:52.345Z,100.00
2022-08-20T04:44:53.617Z,100.00
2022-08-20T04:54:58.267Z,100.00
2022-08-20T05:04:59.607Z,100.00
2022-08-20T05:15:00.835Z,100.00
2022-08-20T05:25:02.594Z,100.00
2022-08-20T05:35:03.920Z,100.00
2022-08-20T05:45:05.272Z,100.00
2022-08-20T05:55:16.086Z,100.00
2022-08-20T06:05:17.472Z,100.00
2022-08-20T06:15:18.902Z,100.00
2022-08-20T06:25:20.384Z,100.00
2022-08-20T06:35:21.800Z,95.70
2022-08-20T06:45:24.521Z,91.87
2022-08-20T06:55:25.923Z,89.54
2022-08-20T07:05:27.247Z,92.93
2022-08-20T07:15:28.595Z,93.02
2022-08-20T07:25:29.982Z,93.35
2022-08-20T07:35:31.353Z,94.44
2022-08-20T07:45:32.783Z,92.14
2022-08-20T07:55:34.114Z,87.33
2022-08-20T08:05:35.461Z,84.86
2022-08-20T08:15:40.790Z,82.34
2022-08-20T08:25:46.012Z,85.88
2022-08-20T08:35:48.016Z,78.90
2022-08-20T08:45:49.350Z,73.86
2022-08-20T08:55:50.805Z,72.45
2022-08-20T09:05:52.272Z,75.39
2022-08-20T09:15:53.611Z,72.01
2022-08-20T09:25:54.953Z,70.53
2022-08-20T09:35:56.264Z,66.89
2022-08-20T09:45:57.686Z,60.05
2022-08-20T09:56:00.224Z,61.70
2022-08-20T10:06:01.564Z,60.26
2022-08-20T10:16:03.743Z,60.64
2022-08-20T10:26:05.095Z,60.19
2022-08-20T10:36:06.409Z,56.63
2022-08-20T10:46:07.789Z,52.88
2022-08-20T10:56:12.681Z,53.16
2022-08-20T11:06:16.393Z,52.95
2022-08-20T11:16:17.679Z,52.39
2022-08-20T11:26:18.944Z,52.75
2022-08-20T11:36:20.710Z,52.74
2022-08-20T11:46:26.545Z,51.68
2022-08-20T11:56:29.720Z,49.77
2022-08-20T12:06:31.474Z,52.47
2022-08-20T12:16:32.803Z,49.11
2022-08-20T12:26:34.207Z,44.97
2022-08-20T12:36:35.550Z,43.56
2022-08-20T12:46:36.915Z,44.08
2022-08-20T12:56:38.256Z,42.17
2022-08-20T13:06:39.587Z,39.84
2022-08-20T13:16:40.924Z,40.52
2022-08-20T13:26:42.252Z,38.48
2022-08-20T13:36:43.661Z,37.04
2022-08-20T13:46:45.140Z,34.70
2022-08-20T13:56:46.471Z,34.00
2022-08-20T14:06:47.961Z,30.11
2022-08-20T14:16:49.307Z,31.85
2022-08-20T14:26:50.723Z,27.89
2022-08-20T14:36:52.070Z,28.92
2022-08-20T14:46:53.379Z,29.00
2022-08-20T14:56:55.085Z,27.22
2022-08-20T15:06:56.412Z,26.77
2022-08-20T15:17:02.029Z,27.34
2022-08-20T15:27:03.398Z,28.97
2022-08-20T15:37:04.745Z,27.73
2022-08-20T15:47:06.004Z,28.30
2022-08-20T15:57:07.318Z,28.46
2022-08-20T16:07:08.663Z,27.78
2022-08-20T16:17:10.068Z,27.90
2022-08-20T16:27:12.603Z,28.00
2022-08-20T16:37:13.944Z,28.45
2022-08-20T16:47:15.886Z,29.32
2022-08-20T16:57:18.502Z,29.24
2022-08-20T17:07:19.835Z,29.65
2022-08-20T17:17:22.403Z,29.96
2022-08-20T17:27:23.748Z,31.68
2022-08-20T17:37:25.937Z,31.94
2022-08-20T17:47:27.332Z,33.04
2022-08-20T17:57:28.676Z,34.36
2022-08-20T18:07:30.488Z,35.21
2022-08-20T18:17:31.815Z,36.48
2022-08-20T18:27:33.094Z,37.30
2022-08-20T18:37:34.398Z,38.28
2022-08-20T18:47:35.674Z,38.75
2022-08-20T18:57:40.871Z,38.88
2022-08-20T19:07:48.573Z,40.12
2022-08-20T19:17:50.373Z,40.91
2022-08-20T19:27:51.863Z,41.92
2022-08-20T19:37:53.268Z,42.60
2022-08-20T19:47:54.627Z,43.23
2022-08-20T19:57:57.036Z,44.23
2022-08-20T20:07:58.423Z,45.43
2022-08-20T20:17:59.964Z,46.18
2022-08-20T20:28:01.251Z,47.24
2022-08-20T20:38:02.650Z,48.47
2022-08-20T20:48:03.988Z,51.17
2022-08-20T20:58:05.388Z,51.53
2022-08-20T21:08:06.711Z,51.95
2022-08-20T21:18:08.211Z,52.30
2022-08-20T21:28:09.552Z,53.76
2022-08-20T21:38:11.220Z,54.46
2022-08-20T21:48:15.764Z,54.93
2022-08-20T21:58:17.091Z,56.61
2022-08-20T22:08:18.436Z,57.74
2022-08-20T22:18:19.820Z,59.21
2022-08-20T22:28:21.194Z,59.72
2022-08-20T22:38:22.543Z,59.65
2022-08-20T22:48:23.952Z,60.64
2022-08-20T22:58:31.432Z,61.66
2022-08-20T23:08:32.875Z,63.68
2022-08-20T23:18:34.219Z,65.36
2022-08-20T23:28:35.560Z,65.20
2022-08-20T23:38:37.011Z,66.14
2022-08-20T23:48:38.425Z,66.84
2022-08-20T23:58:40.012Z,67.56
